EBCI/CRL METAR and TAF weather

Enter ICAO airport designator
Station Type Date Time Source
EBCI METAR 2019/08/19 22:20 UTC NOAA

EBCI 192220Z 21005KT CAVOK 14/09 Q1021 NOSIG


Station Type Date Time Source
EBCI Decoded METAR 2019/08/19 22:20 UTC NOAA

Charleroi / Gosselies, Belgium (EBCI) 50-28N 004-27E 192M
Aug 19, 2019 - 06:20 PM EDT / 2019.08.19 2220 UTC
Wind: from the SSW (210 degrees) at 6 MPH (5 KT):0
Visibility: greater than 7 mile(s):0
Temperature: 57 F (14 C)
Dew Point: 48 F (9 C)
Relative Humidity: 71%
Pressure (altimeter): 30.15 in. Hg (1021 hPa)
ob: EBCI 192220Z 21005KT CAVOK 14/09 Q1021 NOSIG
cycle: 22

Station Type Date Time Source
EBCI TAF 2019/08/19 18:27 UTC NOAA

TAF EBCI 191710Z 1918/2024 23007KT CAVOK

Example: see airport list